Time;durP1;ratioP1;P1;durP2;ratioP2;P2;SDS_P1;SDS_P2;PMS_P1;PMS_P2;Temp;Humidity;BMP_temperature;BMP_pressure;BME280_temperature;BME280_humidity;BME280_pressure;Samples;Min_cycle;Max_cycle;Signal;HPM_P1;HPM_P2
2022/04/18 00:01:40;;;;;;;3.53;1.90;;;6.40;99.90;;;;;;5094631;28;20024;-59
2022/04/18 00:04:06;;;;;;;2.90;2.10;;;6.30;99.90;;;;;;5076370;28;20063;-60
2022/04/18 00:06:35;;;;;;;3.03;1.88;;;6.20;99.90;;;;;;5076273;28;20052;-60
2022/04/18 00:09:04;;;;;;;3.65;2.08;;;6.20;99.90;;;;;;5094727;28;20012;-60
2022/04/18 00:11:30;;;;;;;3.50;2.33;;;6.20;99.90;;;;;;5094275;28;20050;-59
2022/04/18 00:13:56;;;;;;;4.03;2.15;;;6.20;99.90;;;;;;5094584;28;20032;-60
2022/04/18 00:16:22;;;;;;;3.42;2.45;;;6.20;99.90;;;;;;5094202;28;20023;-59
2022/04/18 00:18:48;;;;;;;3.72;1.85;;;6.10;99.90;;;;;;5094211;28;20024;-60
2022/04/18 00:21:13;;;;;;;2.80;2.00;;;6.00;99.90;;;;;;5076155;28;20056;-60
2022/04/18 00:23:39;;;;;;;2.88;1.98;;;6.00;99.90;;;;;;5075877;28;20108;-60
2022/04/18 00:26:04;;;;;;;4.05;2.05;;;6.10;99.90;;;;;;5094181;28;20021;-60
2022/04/18 00:28:30;;;;;;;7.10;3.25;;;6.00;99.90;;;;;;5075796;28;20389;-60
2022/04/18 00:30:57;;;;;;;4.45;2.60;;;6.10;99.90;;;;;;5075753;28;20469;-60
2022/04/18 00:33:23;;;;;;;3.30;2.08;;;6.00;99.90;;;;;;5076085;28;20024;-60
2022/04/18 00:35:48;;;;;;;3.58;2.25;;;5.90;99.90;;;;;;5094199;28;20026;-60
2022/04/18 00:38:14;;;;;;;5.30;2.15;;;5.90;99.90;;;;;;5093635;28;20024;-60
2022/04/18 00:40:40;;;;;;;2.67;2.10;;;5.90;99.90;;;;;;5075850;28;20035;-58
2022/04/18 00:43:06;;;;;;;4.10;2.10;;;5.90;99.90;;;;;;5072959;28;20024;-60
2022/04/18 00:45:32;;;;;;;4.53;2.47;;;5.80;99.90;;;;;;5086652;28;20027;-60
2022/04/18 00:47:58;;;;;;;2.97;2.17;;;5.70;99.90;;;;;;5093974;28;20047;-61
2022/04/18 00:50:26;;;;;;;3.03;2.20;;;5.70;99.90;;;;;;5075442;28;20020;-60
2022/04/18 00:52:53;;;;;;;6.95;2.30;;;5.50;99.90;;;;;;5075381;28;20032;-59
2022/04/18 00:55:20;;;;;;;4.20;2.38;;;5.50;99.90;;;;;;5075880;28;20028;-61
2022/04/18 00:57:47;;;;;;;3.00;2.20;;;5.50;99.90;;;;;;5075220;28;20028;-60
2022/04/18 01:00:14;;;;;;;4.05;2.60;;;5.50;99.90;;;;;;5093346;28;20103;-61
2022/04/18 01:02:40;;;;;;;3.15;2.20;;;5.40;99.90;;;;;;5075634;28;20024;-59
2022/04/18 01:05:06;;;;;;;8.73;2.80;;;5.50;99.90;;;;;;5093029;28;20100;-60
2022/04/18 01:07:34;;;;;;;8.25;2.55;;;5.50;99.90;;;;;;5075239;28;20462;-61
2022/04/18 01:10:02;;;;;;;4.20;2.40;;;5.50;99.90;;;;;;5075164;28;20090;-60
2022/04/18 01:12:28;;;;;;;7.45;2.53;;;5.40;99.90;;;;;;5093461;28;20024;-59
2022/04/18 01:14:54;;;;;;;2.78;2.22;;;5.40;99.90;;;;;;5075201;28;20034;-61
2022/04/18 01:17:19;;;;;;;3.50;2.28;;;5.30;99.90;;;;;;5093384;28;20059;-61
2022/04/18 01:19:45;;;;;;;3.13;2.25;;;5.30;99.90;;;;;;5074939;28;20027;-61
2022/04/18 01:22:12;;;;;;;9.77;2.40;;;5.20;99.90;;;;;;5075178;28;20016;-60
2022/04/18 01:30:07;;;;;;;4.40;2.60;;;5.20;99.90;;;;;;5093497;28;20047;-60
2022/04/18 01:32:33;;;;;;;3.80;2.58;;;5.20;99.90;;;;;;5074900;28;20027;-54
2022/04/18 01:34:59;;;;;;;5.18;2.55;;;5.10;99.90;;;;;;5075093;28;20065;-55
2022/04/18 01:37:24;;;;;;;5.18;2.55;;;5.10;99.90;;;;;;5092977;28;20107;-51
2022/04/18 01:39:50;;;;;;;4.97;2.70;;;5.00;99.90;;;;;;5075136;28;20072;-54
2022/04/18 01:42:16;;;;;;;3.60;2.72;;;5.00;99.90;;;;;;5092938;28;20024;-56
2022/04/18 01:44:42;;;;;;;4.72;2.85;;;5.00;99.90;;;;;;5093358;28;20113;-56
2022/04/18 01:47:08;;;;;;;5.35;2.83;;;5.00;99.90;;;;;;5074817;28;20024;-51
2022/04/18 01:49:33;;;;;;;5.60;2.90;;;5.00;99.90;;;;;;5092933;28;20028;-55
2022/04/18 01:51:59;;;;;;;5.68;2.47;;;5.00;99.90;;;;;;5070149;28;20036;-52
2022/04/18 01:54:25;;;;;;;6.68;3.75;;;5.10;99.90;;;;;;5065038;28;20031;-52
2022/04/18 01:56:51;;;;;;;8.43;4.38;;;5.00;99.90;;;;;;5067766;28;20024;-52
2022/04/18 01:59:17;;;;;;;7.10;4.03;;;4.90;99.90;;;;;;5074736;28;20026;-51
2022/04/18 02:01:43;;;;;;;9.00;4.40;;;4.90;99.90;;;;;;5074552;28;20024;-52
2022/04/18 02:04:08;;;;;;;7.88;3.75;;;4.80;99.90;;;;;;5092680;28;20020;-49
2022/04/18 02:06:34;;;;;;;8.38;3.10;;;4.70;99.90;;;;;;5075026;28;20024;-51
2022/04/18 02:09:01;;;;;;;5.85;3.30;;;4.80;99.90;;;;;;5074590;28;20028;-52
2022/04/18 02:11:27;;;;;;;6.53;3.20;;;4.70;99.90;;;;;;5074555;28;20020;-51
2022/04/18 02:13:53;;;;;;;5.80;3.03;;;4.70;99.90;;;;;;5092836;28;20024;-55
2022/04/18 02:16:19;;;;;;;6.32;2.92;;;4.70;99.90;;;;;;5074698;28;20052;-54
2022/04/18 02:18:45;;;;;;;10.10;5.47;;;4.70;99.90;;;;;;5078423;28;20042;-53
2022/04/18 02:21:16;;;;;;;11.43;4.82;;;4.60;99.90;;;;;;5078148;28;20500;-54
2022/04/18 02:23:42;;;;;;;8.00;3.53;;;4.70;99.90;;;;;;5078262;28;20482;-52
2022/04/18 02:26:09;;;;;;;5.57;3.20;;;4.70;99.90;;;;;;5096774;28;20060;-52
2022/04/18 02:28:35;;;;;;;7.10;3.08;;;4.80;99.90;;;;;;5096362;28;20123;-52
2022/04/18 02:31:01;;;;;;;2.67;2.05;;;4.90;99.90;;;;;;5078275;28;20040;-54
2022/04/18 02:33:27;;;;;;;5.35;2.30;;;4.90;99.90;;;;;;5078446;28;20028;-51
2022/04/18 02:35:53;;;;;;;4.22;2.38;;;4.90;99.90;;;;;;5077893;28;20024;-52
2022/04/18 02:38:19;;;;;;;4.28;2.00;;;4.90;99.90;;;;;;5095959;28;20028;-49
2022/04/18 02:40:45;;;;;;;7.32;4.03;;;4.90;99.90;;;;;;5096148;28;20104;-55
2022/04/18 02:43:12;;;;;;;6.25;3.35;;;4.80;99.90;;;;;;5096263;28;20020;-53
2022/04/18 02:45:37;;;;;;;7.22;2.92;;;4.70;99.90;;;;;;5096654;28;20039;-56
2022/04/18 02:48:04;;;;;;;13.77;5.00;;;4.70;99.90;;;;;;5095870;28;20063;-52
2022/04/18 02:50:29;;;;;;;11.95;5.28;;;4.70;99.90;;;;;;5077595;28;20492;-51
2022/04/18 02:52:56;;;;;;;16.00;5.70;;;4.70;99.90;;;;;;5095932;28;20024;-52
2022/04/18 02:55:22;;;;;;;14.82;5.28;;;4.60;99.90;;;;;;5095912;28;20028;-54
2022/04/18 02:57:47;;;;;;;14.73;4.80;;;4.60;99.90;;;;;;5095767;28;20024;-50
2022/04/18 03:00:14;;;;;;;13.77;4.72;;;4.50;99.90;;;;;;5077787;28;20043;-50
2022/04/18 03:02:40;;;;;;;7.70;4.07;;;4.50;99.90;;;;;;5078021;28;20024;-52
2022/04/18 03:05:08;;;;;;;8.60;4.25;;;4.40;99.90;;;;;;5077590;28;20020;-52
2022/04/18 03:07:34;;;;;;;6.03;3.58;;;4.30;99.90;;;;;;5095746;28;20043;-52
2022/04/18 03:10:00;;;;;;;5.82;3.10;;;4.30;99.90;;;;;;5065054;28;20471;-52
2022/04/18 03:12:26;;;;;;;4.18;2.60;;;4.20;99.90;;;;;;5057183;28;20051;-52
2022/04/18 03:14:52;;;;;;;3.92;2.75;;;4.00;99.90;;;;;;5057642;28;20063;-54
2022/04/18 03:17:18;;;;;;;6.47;2.67;;;4.10;99.90;;;;;;5057125;28;20470;-51
2022/04/18 03:19:44;;;;;;;3.78;2.05;;;4.10;99.90;;;;;;5057261;28;20028;-53
2022/04/18 03:22:09;;;;;;;5.70;2.47;;;4.10;99.90;;;;;;5057227;28;20017;-55
2022/04/18 03:24:35;;;;;;;4.85;2.08;;;4.10;99.90;;;;;;5074924;28;20024;-50
2022/04/18 03:27:02;;;;;;;4.25;2.33;;;4.00;99.90;;;;;;5057040;28;20028;-52
2022/04/18 03:29:28;;;;;;;7.50;2.80;;;3.90;99.90;;;;;;5056360;28;20024;-55
2022/04/18 03:31:54;;;;;;;5.63;2.65;;;3.90;99.90;;;;;;5057404;28;20051;-56
2022/04/18 03:34:20;;;;;;;3.67;2.53;;;3.80;99.90;;;;;;5056804;28;20115;-53
2022/04/18 03:42:13;;;;;;;8.43;2.78;;;3.80;99.90;;;;;;5075223;28;20081;-52
2022/04/18 03:44:44;;;;;;;6.60;2.97;;;3.80;99.90;;;;;;5056802;28;20017;-52
2022/04/18 03:47:15;;;;;;;5.90;3.08;;;3.70;99.90;;;;;;5074621;28;20021;-56
2022/04/18 03:49:41;;;;;;;10.90;3.97;;;3.80;99.90;;;;;;5057182;28;20025;-52
2022/04/18 03:52:08;;;;;;;9.57;3.28;;;3.80;99.90;;;;;;5074545;28;20036;-55
2022/04/18 03:54:34;;;;;;;7.38;3.60;;;3.80;99.90;;;;;;5074203;28;20016;-54
2022/04/18 03:57:01;;;;;;;6.45;3.70;;;3.80;99.90;;;;;;5074309;28;20098;-57
2022/04/18 03:59:27;;;;;;;5.88;3.17;;;3.70;99.90;;;;;;5074364;28;20020;-51
2022/04/18 04:01:52;;;;;;;4.38;2.63;;;3.70;99.90;;;;;;5057194;28;20074;-55
2022/04/18 04:04:18;;;;;;;3.97;2.28;;;3.80;99.90;;;;;;5074262;28;20052;-49
2022/04/18 04:06:44;;;;;;;5.10;2.30;;;3.70;99.90;;;;;;5074121;28;20025;-54
2022/04/18 04:09:09;;;;;;;5.45;2.45;;;3.70;99.90;;;;;;5056144;28;20031;-49
2022/04/18 04:11:35;;;;;;;3.85;2.47;;;3.60;99.90;;;;;;5069095;28;20024;-50
2022/04/18 04:14:00;;;;;;;7.50;2.78;;;3.50;99.90;;;;;;5094228;28;20441;-50
2022/04/18 04:16:26;;;;;;;4.18;2.28;;;3.60;99.90;;;;;;5094017;28;20103;-53
2022/04/18 04:18:51;;;;;;;3.92;2.38;;;3.60;99.90;;;;;;5093883;28;20024;-51
2022/04/18 04:21:17;;;;;;;4.85;3.25;;;3.60;99.90;;;;;;5075751;28;20020;-51
2022/04/18 04:23:43;;;;;;;7.45;3.35;;;3.50;99.90;;;;;;5093966;28;20020;-51
2022/04/18 04:26:08;;;;;;;3.97;2.67;;;3.50;99.90;;;;;;5075693;28;20024;-49
2022/04/18 04:28:35;;;;;;;4.05;2.28;;;3.50;99.90;;;;;;5076024;28;20174;-50
2022/04/18 04:31:03;;;;;;;7.32;2.55;;;3.50;99.90;;;;;;5093908;28;20032;-54
2022/04/18 04:33:31;;;;;;;4.95;2.33;;;3.60;99.90;;;;;;5076356;28;20394;-50
2022/04/18 04:36:01;;;;;;;4.57;2.30;;;3.60;99.90;;;;;;5094292;28;20020;-53
2022/04/18 04:38:27;;;;;;;5.63;2.90;;;3.60;99.90;;;;;;5075925;28;20032;-49
2022/04/18 04:40:53;;;;;;;4.53;2.67;;;3.60;99.90;;;;;;5075050;28;20028;-51
2022/04/18 04:43:28;;;;;;;5.28;2.45;;;3.70;99.90;;;;;;5094095;28;20020;-51
2022/04/18 04:45:55;;;;;;;6.85;2.80;;;3.80;99.90;;;;;;5075962;28;20025;-51
2022/04/18 04:48:21;;;;;;;6.10;2.50;;;4.00;99.90;;;;;;5075829;28;20035;-51
2022/04/18 04:50:47;;;;;;;8.70;4.03;;;4.20;99.90;;;;;;5093907;28;20077;-56
2022/04/18 04:53:12;;;;;;;12.98;5.07;;;4.50;99.90;;;;;;5093915;28;20024;-50
2022/04/18 04:55:38;;;;;;;6.43;2.97;;;4.70;99.90;;;;;;5075742;28;20055;-51
2022/04/18 04:58:04;;;;;;;3.72;2.38;;;5.00;99.90;;;;;;5094098;28;20028;-54
2022/04/18 05:00:30;;;;;;;3.25;2.00;;;5.30;99.90;;;;;;5093728;28;20024;-53
2022/04/18 05:02:56;;;;;;;3.15;2.38;;;5.60;99.90;;;;;;5075924;28;20031;-52
2022/04/18 05:05:22;;;;;;;2.78;2.13;;;6.10;99.90;;;;;;5094010;28;20020;-52
2022/04/18 05:07:48;;;;;;;5.45;2.50;;;6.50;99.90;;;;;;5075830;28;20043;-51
2022/04/18 05:10:15;;;;;;;4.75;2.35;;;6.90;99.90;;;;;;5093823;28;20062;-53
2022/04/18 05:12:41;;;;;;;5.95;2.28;;;7.10;99.90;;;;;;5093797;28;20020;-54
2022/04/18 05:15:07;;;;;;;4.70;2.33;;;7.60;99.90;;;;;;5075874;28;20035;-57
2022/04/18 05:17:33;;;;;;;4.78;2.22;;;8.00;99.90;;;;;;5093685;28;20028;-56
2022/04/18 05:19:59;;;;;;;3.90;1.92;;;8.70;99.90;;;;;;5093432;28;20089;-51
2022/04/18 05:22:25;;;;;;;2.88;2.17;;;9.30;99.90;;;;;;5093484;28;20052;-55
2022/04/18 05:24:51;;;;;;;3.85;2.00;;;9.80;99.90;;;;;;5093551;28;20027;-56
2022/04/18 05:27:17;;;;;;;2.50;1.90;;;10.40;99.90;;;;;;5076331;28;20036;-56
2022/04/18 05:29:44;;;;;;;4.63;2.25;;;11.00;99.90;;;;;;5075164;28;20107;-57
2022/04/18 05:32:10;;;;;;;4.50;2.58;;;11.00;99.90;;;;;;5075463;28;20056;-55
2022/04/18 05:34:36;;;;;;;6.28;2.50;;;11.30;99.90;;;;;;5075327;28;20028;-52
2022/04/18 05:37:02;;;;;;;3.90;2.25;;;11.70;99.90;;;;;;5093607;28;20028;-56
2022/04/18 05:39:27;;;;;;;6.40;2.00;;;12.30;99.90;;;;;;5075258;28;20087;-55
2022/04/18 05:41:53;;;;;;;3.22;2.40;;;12.80;99.90;;;;;;5075538;28;20023;-56
2022/04/18 05:44:19;;;;;;;4.22;2.33;;;13.20;99.30;;;;;;5070591;28;20101;-54
2022/04/18 05:46:44;;;;;;;3.88;2.20;;;13.70;98.60;;;;;;5071208;28;20071;-52
2022/04/18 05:49:10;;;;;;;3.85;2.63;;;14.00;97.50;;;;;;5081980;28;20044;-52
2022/04/18 05:51:37;;;;;;;4.45;2.47;;;14.20;95.10;;;;;;5073556;28;20032;-53
2022/04/18 05:54:03;;;;;;;6.25;2.75;;;14.40;95.50;;;;;;5077392;28;20049;-53
2022/04/18 05:56:29;;;;;;;2.92;2.05;;;15.10;93.70;;;;;;5060007;28;20077;-56
2022/04/18 05:58:55;;;;;;;4.53;2.38;;;15.50;91.60;;;;;;5059012;28;20021;-53
2022/04/18 06:01:21;;;;;;;5.35;2.60;;;15.90;90.40;;;;;;5059388;28;20021;-53
2022/04/18 06:03:47;;;;;;;4.50;2.55;;;16.40;90.80;;;;;;5076913;28;20032;-50
2022/04/18 06:06:14;;;;;;;4.47;2.28;;;16.60;85.80;;;;;;5059875;28;20108;-55
2022/04/18 06:08:39;;;;;;;3.25;2.30;;;17.10;87.10;;;;;;5077039;28;20028;-50
2022/04/18 06:11:05;;;;;;;3.38;2.50;;;17.30;83.60;;;;;;5059186;28;20371;-55
2022/04/18 06:13:31;;;;;;;4.00;3.10;;;17.80;80.60;;;;;;5076739;28;20031;-54
2022/04/18 06:15:57;;;;;;;5.00;2.72;;;18.00;81.10;;;;;;5059139;28;20028;-55
2022/04/18 06:18:22;;;;;;;5.35;2.83;;;18.40;76.60;;;;;;5076883;28;20026;-55
2022/04/18 06:20:48;;;;;;;4.88;2.40;;;18.50;76.10;;;;;;5058963;28;20017;-57
2022/04/18 06:23:17;;;;;;;5.40;2.63;;;19.10;76.80;;;;;;5058722;28;20458;-51
2022/04/18 06:25:43;;;;;;;3.33;2.40;;;19.40;71.20;;;;;;5058987;28;20476;-53
2022/04/18 06:28:09;;;;;;;2.58;2.13;;;19.70;73.60;;;;;;5076503;28;20526;-56
2022/04/18 06:30:35;;;;;;;3.50;2.47;;;20.40;69.70;;;;;;5076272;28;20043;-57
2022/04/18 06:33:01;;;;;;;4.78;2.63;;;21.10;70.40;;;;;;5076944;28;20028;-51
2022/04/18 06:35:26;;;;;;;4.55;3.17;;;20.50;65.80;;;;;;5058645;28;20553;-53
2022/04/18 06:37:52;;;;;;;4.75;2.83;;;20.30;67.20;;;;;;5078367;28;20028;-54
2022/04/18 06:40:18;;;;;;;8.07;4.03;;;21.40;70.00;;;;;;5078616;28;20020;-52
2022/04/18 06:42:43;;;;;;;3.83;2.83;;;22.30;64.70;;;;;;5096496;28;20076;-56
2022/04/18 06:45:09;;;;;;;3.00;2.25;;;22.50;63.60;;;;;;5078300;28;20027;-53
2022/04/18 06:47:34;;;;;;;3.90;2.65;;;22.60;64.00;;;;;;5078295;28;20034;-55
2022/04/18 06:50:00;;;;;;;2.90;2.35;;;23.00;62.50;;;;;;5096340;28;20043;-54
2022/04/18 06:52:26;;;;;;;3.33;2.40;;;23.90;59.80;;;;;;5096257;28;20032;-55
2022/04/18 06:54:52;;;;;;;4.90;3.40;;;24.90;58.70;;;;;;5078390;28;20467;-51
2022/04/18 06:57:17;;;;;;;3.17;2.60;;;25.00;55.90;;;;;;5078943;28;20505;-52
2022/04/18 06:59:45;;;;;;;5.10;2.60;;;25.40;55.50;;;;;;5078023;28;20097;-51
2022/04/18 07:02:11;;;;;;;2.67;2.22;;;24.80;54.60;;;;;;5078027;28;20020;-54
2022/04/18 07:04:37;;;;;;;3.13;2.20;;;25.00;57.60;;;;;;5076970;28;20457;-55
2022/04/18 07:07:05;;;;;;;3.53;2.60;;;25.60;54.70;;;;;;5096016;28;20070;-54
2022/04/18 07:09:31;;;;;;;6.10;3.05;;;26.20;54.00;;;;;;5089284;28;20107;-54
2022/04/18 07:11:56;;;;;;;2.60;2.20;;;26.70;52.60;;;;;;5057595;28;20459;-54
2022/04/18 07:14:22;;;;;;;4.13;2.38;;;27.00;52.40;;;;;;5058698;28;20035;-55
2022/04/18 07:16:49;;;;;;;3.20;2.17;;;27.60;51.30;;;;;;5077703;28;20383;-53
2022/04/18 07:19:14;;;;;;;3.15;2.80;;;28.40;51.20;;;;;;5096138;28;20025;-56
2022/04/18 07:21:41;;;;;;;2.35;2.15;;;27.50;48.10;;;;;;5077654;28;20024;-52
2022/04/18 07:24:07;;;;;;;5.60;4.18;;;27.20;50.80;;;;;;5095967;28;20035;-56
2022/04/18 07:26:32;;;;;;;4.07;2.70;;;27.70;49.00;;;;;;5078176;28;20023;-55
2022/04/18 07:28:58;;;;;;;3.47;2.53;;;28.40;48.20;;;;;;5078227;28;20024;-54
2022/04/18 07:31:24;;;;;;;5.22;2.60;;;28.80;48.20;;;;;;5074038;28;20494;-53
2022/04/18 07:33:49;;;;;;;3.83;2.58;;;27.20;49.10;;;;;;5074000;28;20177;-54
2022/04/18 07:36:15;;;;;;;2.80;2.35;;;27.30;47.20;;;;;;5075238;28;20027;-53
2022/04/18 07:38:50;;;;;;;3.55;2.67;;;27.30;49.20;;;;;;5080476;28;20039;-55
2022/04/18 07:41:21;;;;;;;4.22;2.45;;;27.90;47.70;;;;;;5061100;28;20027;-54
2022/04/18 07:43:48;;;;;;;3.05;2.33;;;28.70;47.00;;;;;;5075318;28;20151;-57
2022/04/18 07:46:15;;;;;;;2.30;1.90;;;29.30;46.50;;;;;;5074650;28;20028;-55
2022/04/18 07:48:41;;;;;;;3.83;2.38;;;30.20;46.50;;;;;;5075007;28;20037;-56
2022/04/18 07:53:51;;;;;;;2.25;1.92;;;30.90;44.40;;;;;;5075373;28;20049;-55
2022/04/18 07:56:17;;;;;;;2.65;2.20;;;31.30;45.40;;;;;;5076859;28;20095;-51
2022/04/18 07:58:42;;;;;;;3.90;2.03;;;31.70;44.50;;;;;;5076883;28;20046;-55
2022/04/18 08:01:08;;;;;;;1.90;1.70;;;31.90;42.50;;;;;;5076856;28;20020;-56
2022/04/18 08:03:35;;;;;;;3.78;2.05;;;32.20;43.10;;;;;;5076866;28;20016;-52
2022/04/18 08:06:01;;;;;;;3.45;3.15;;;32.90;42.70;;;;;;5095037;28;20024;-55
2022/04/18 08:08:27;;;;;;;3.00;2.65;;;32.90;42.30;;;;;;5094814;28;20032;-50
2022/04/18 08:10:53;;;;;;;3.45;2.30;;;31.50;42.10;;;;;;5094734;28;20031;-50
2022/04/18 08:13:18;;;;;;;6.68;2.67;;;30.70;42.10;;;;;;5072662;28;20074;-51
2022/04/18 08:15:44;;;;;;;3.88;2.60;;;29.40;42.30;;;;;;5073169;28;20059;-53
2022/04/18 08:18:09;;;;;;;3.65;2.60;;;30.30;42.60;;;;;;5073132;28;20081;-54
2022/04/18 08:20:35;;;;;;;3.35;2.70;;;30.60;42.90;;;;;;5074815;28;20028;-56
2022/04/18 08:23:01;;;;;;;4.45;2.25;;;31.70;40.20;;;;;;5073314;28;20067;-55
2022/04/18 08:25:27;;;;;;;3.80;2.42;;;29.80;41.20;;;;;;5074277;28;20028;-53
2022/04/18 08:27:52;;;;;;;4.03;2.42;;;30.80;40.90;;;;;;5072964;28;20502;-55
2022/04/18 08:30:18;;;;;;;2.80;2.60;;;30.70;40.40;;;;;;5073943;28;20036;-55
2022/04/18 08:32:44;;;;;;;3.17;2.38;;;29.30;40.50;;;;;;5076597;28;20024;-53
2022/04/18 08:35:10;;;;;;;3.63;2.72;;;30.00;40.20;;;;;;5094725;28;20032;-54
2022/04/18 08:37:36;;;;;;;3.28;2.28;;;28.80;39.70;;;;;;5076094;28;20129;-53
2022/04/18 08:40:07;;;;;;;4.18;2.72;;;28.90;41.00;;;;;;5076048;28;20043;-54
2022/04/18 08:42:39;;;;;;;3.00;2.47;;;28.60;40.20;;;;;;5074194;28;20538;-52
2022/04/18 08:45:07;;;;;;;4.20;3.00;;;28.20;41.00;;;;;;5073908;28;20039;-56
2022/04/18 08:53:06;;;;;;;4.85;2.85;;;29.20;42.50;;;;;;5073890;28;20504;-57
2022/04/18 08:55:32;;;;;;;6.13;2.80;;;29.60;39.70;;;;;;5072756;28;20074;-58
2022/04/18 08:57:57;;;;;;;4.13;2.78;;;29.20;40.50;;;;;;5072712;28;20033;-53
2022/04/18 09:00:23;;;;;;;3.80;2.60;;;28.80;38.70;;;;;;5075488;28;20115;-52
2022/04/18 09:02:49;;;;;;;5.78;3.10;;;29.70;40.80;;;;;;5093043;28;20032;-51
2022/04/18 09:05:15;;;;;;;3.45;2.50;;;29.20;40.00;;;;;;5060079;28;20367;-53
2022/04/18 09:07:56;;;;;;;4.88;3.03;;;28.10;40.10;;;;;;5089929;28;20023;-57
2022/04/18 09:10:23;;;;;;;4.25;2.70;;;27.70;41.50;;;;;;5075665;28;20028;-52
2022/04/18 09:12:50;;;;;;;4.75;2.42;;;29.50;42.10;;;;;;5075651;28;20117;-52
2022/04/18 09:15:35;;;;;;;7.30;3.03;;;29.20;40.50;;;;;;5075653;28;20031;-57
2022/04/18 09:18:11;;;;;;;4.80;2.90;;;29.00;38.90;;;;;;5093589;28;20080;-54
2022/04/18 09:20:42;;;;;;;3.40;2.70;;;30.00;39.90;;;;;;5076933;28;20088;-59
2022/04/18 09:23:18;;;;;;;6.65;2.33;;;30.20;37.40;;;;;;5072135;28;20028;-54
2022/04/18 09:25:44;;;;;;;5.93;2.90;;;29.50;37.80;;;;;;5072142;28;20107;-51
2022/04/18 09:28:11;;;;;;;5.22;3.15;;;30.00;37.70;;;;;;5076421;28;20087;-56
2022/04/18 09:30:37;;;;;;;3.72;2.63;;;29.10;38.60;;;;;;5071431;28;20085;-53
2022/04/18 09:33:03;;;;;;;3.30;2.60;;;29.60;40.30;;;;;;5093479;28;20102;-54
2022/04/18 09:35:29;;;;;;;4.45;3.03;;;31.50;38.70;;;;;;5075708;28;20076;-53
2022/04/18 09:38:05;;;;;;;3.88;2.20;;;31.30;36.90;;;;;;5064627;28;20520;-52
2022/04/18 09:40:32;;;;;;;4.53;2.70;;;29.90;38.10;;;;;;5075596;28;20024;-53
2022/04/18 09:42:58;;;;;;;3.97;2.63;;;29.40;38.50;;;;;;5073497;28;20023;-51
2022/04/18 09:45:23;;;;;;;4.00;2.58;;;30.10;38.70;;;;;;5061395;28;20390;-55
2022/04/18 09:47:57;;;;;;;3.95;2.45;;;30.70;38.70;;;;;;5090638;28;20031;-52
2022/04/18 09:53:24;;;;;;;3.15;2.30;;;30.70;37.80;;;;;;5093539;28;20496;-53
2022/04/18 09:55:52;;;;;;;3.28;1.95;;;30.50;38.30;;;;;;5057167;28;20017;-53
2022/04/18 09:58:18;;;;;;;4.15;2.75;;;31.00;39.10;;;;;;5057744;28;20031;-55
2022/04/18 10:00:43;;;;;;;3.22;2.47;;;30.60;37.40;;;;;;5073615;28;20024;-51
2022/04/18 10:03:10;;;;;;;2.85;2.47;;;29.70;38.40;;;;;;5070943;28;20031;-52
2022/04/18 10:05:36;;;;;;;3.95;2.28;;;29.50;38.30;;;;;;5079424;28;20024;-54
2022/04/18 10:08:04;;;;;;;3.83;2.50;;;28.50;39.50;;;;;;5074099;28;20031;-56
2022/04/18 10:10:34;;;;;;;3.70;2.97;;;28.70;40.20;;;;;;5074899;28;20119;-53
2022/04/18 10:13:00;;;;;;;4.50;2.80;;;30.00;39.30;;;;;;5093141;28;20024;-55
2022/04/18 10:15:30;;;;;;;3.22;2.40;;;30.70;37.70;;;;;;5075022;28;20372;-52
2022/04/18 10:18:03;;;;;;;4.65;2.53;;;31.10;39.30;;;;;;5067448;28;20031;-51
2022/04/18 10:20:37;;;;;;;4.47;2.60;;;31.20;38.90;;;;;;5054674;28;20498;-53
2022/04/18 10:23:22;;;;;;;5.22;2.47;;;31.30;39.00;;;;;;5061031;28;20017;-58
2022/04/18 10:26:20;;;;;;;6.80;2.70;;;30.40;39.50;;;;;;5088326;28;20028;-54
2022/04/18 10:28:50;;;;;;;3.70;2.55;;;29.50;42.00;;;;;;5083739;28;20024;-51
2022/04/18 10:31:22;;;;;;;4.57;2.60;;;28.00;39.10;;;;;;5060578;28;20064;-53
2022/04/18 10:33:49;;;;;;;2.63;2.10;;;26.10;40.50;;;;;;5058197;28;20047;-53
2022/04/18 10:36:24;;;;;;;2.97;2.33;;;24.70;42.60;;;;;;5055723;28;20036;-55
2022/04/18 10:38:50;;;;;;;3.67;2.33;;;24.60;43.50;;;;;;5073979;28;20086;-55
2022/04/18 10:41:38;;;;;;;4.57;2.28;;;24.00;43.60;;;;;;5058896;28;20016;-50
2022/04/18 10:44:12;;;;;;;4.47;2.20;;;22.60;46.10;;;;;;5076333;28;20536;-53
2022/04/18 10:46:39;;;;;;;3.53;2.10;;;22.00;47.00;;;;;;5076230;28;20112;-53
2022/04/18 10:49:18;;;;;;;4.45;2.35;;;22.00;48.50;;;;;;5076329;28;20032;-56
2022/04/18 10:51:51;;;;;;;3.08;1.88;;;22.50;47.50;;;;;;5057146;28;20471;-56
2022/04/18 10:54:21;;;;;;;2.75;2.13;;;21.70;46.00;;;;;;5076048;28;20025;-50
2022/04/18 10:57:05;;;;;;;4.60;2.05;;;20.70;48.70;;;;;;5076153;28;20186;-50
2022/04/18 10:59:36;;;;;;;3.42;2.00;;;20.10;48.80;;;;;;5059534;28;20081;-52
2022/04/18 11:02:06;;;;;;;4.10;2.05;;;20.10;49.50;;;;;;5078283;28;20408;-49
2022/04/18 11:04:41;;;;;;;4.57;2.10;;;19.30;50.10;;;;;;5077144;28;20028;-51
2022/04/18 11:07:08;;;;;;;3.22;2.00;;;19.40;50.80;;;;;;5078543;28;20052;-54
2022/04/18 11:09:41;;;;;;;3.70;1.73;;;19.00;52.10;;;;;;5096196;28;20024;-50
2022/04/18 11:12:16;;;;;;;5.68;2.00;;;18.70;51.90;;;;;;5078091;28;20047;-49
2022/04/18 11:14:48;;;;;;;2.63;1.85;;;18.40;52.50;;;;;;5078866;28;20078;-54
2022/04/18 11:17:23;;;;;;;;;;;18.30;52.30;;;;;;5078607;28;20020;-50
2022/04/18 11:19:49;;;;;;;2.83;1.63;;;18.10;52.60;;;;;;5095806;28;19947;-51
2022/04/18 11:22:14;;;;;;;5.45;1.80;;;18.00;52.70;;;;;;5073073;28;20070;-53
2022/04/18 11:24:54;;;;;;;4.75;1.83;;;18.00;53.30;;;;;;5057616;28;20028;-50
2022/04/18 11:27:26;;;;;;;4.15;1.85;;;18.40;54.20;;;;;;5075552;28;20099;-50
2022/04/18 11:30:04;;;;;;;5.05;1.70;;;19.10;54.30;;;;;;5075544;28;20031;-49
2022/04/18 11:32:31;;;;;;;1.67;1.52;;;19.50;55.20;;;;;;5075502;28;20088;-53
2022/04/18 11:34:59;;;;;;;2.25;1.55;;;20.00;54.30;;;;;;5075508;28;20025;-50
2022/04/18 11:37:28;;;;;;;4.22;1.95;;;20.20;53.50;;;;;;5057365;28;20436;-53
2022/04/18 11:39:58;;;;;;;8.23;1.88;;;20.10;53.10;;;;;;5057271;28;20097;-56
2022/04/18 11:42:27;;;;;;;2.92;1.80;;;19.40;53.40;;;;;;5075734;28;20043;-49
2022/04/18 11:44:55;;;;;;;5.35;2.00;;;19.10;53.60;;;;;;5064144;28;20024;-49
2022/04/18 11:47:23;;;;;;;3.65;2.13;;;18.60;53.60;;;;;;5078071;28;20034;-52
2022/04/18 11:49:58;;;;;;;2.38;1.63;;;18.50;54.60;;;;;;5058467;28;20052;-53
2022/04/18 11:52:36;;;;;;;2.28;1.63;;;18.70;55.00;;;;;;5057109;28;20027;-50
2022/04/18 11:55:03;;;;;;;2.92;1.55;;;19.00;55.00;;;;;;5074867;28;20024;-50
2022/04/18 11:57:34;;;;;;;2.88;1.67;;;19.10;54.10;;;;;;5057478;28;20025;-50
2022/04/18 12:00:03;;;;;;;2.70;1.98;;;19.50;53.50;;;;;;5067652;28;20504;-56
2022/04/18 12:08:02;;;;;;;2.10;1.75;;;19.20;53.30;;;;;;5095468;28;20497;-51
2022/04/18 12:10:32;;;;;;;2.47;1.60;;;19.10;54.10;;;;;;5076719;28;20055;-55
2022/04/18 12:13:00;;;;;;;3.55;1.88;;;18.80;54.40;;;;;;5077689;28;20036;-55
2022/04/18 12:15:27;;;;;;;3.50;1.60;;;18.40;54.40;;;;;;5094688;28;20028;-56
2022/04/18 12:17:55;;;;;;;2.42;1.38;;;18.50;55.80;;;;;;5077308;28;20028;-52
2022/04/18 12:20:25;;;;;;;1.95;1.50;;;18.60;55.10;;;;;;5076298;28;20017;-57
2022/04/18 12:22:53;;;;;;;5.00;1.50;;;18.90;55.50;;;;;;5064606;28;20047;-52
2022/04/18 12:25:23;;;;;;;3.08;1.70;;;19.00;54.90;;;;;;5056685;28;20024;-52
2022/04/18 12:27:49;;;;;;;2.78;1.42;;;18.60;54.70;;;;;;5056415;28;20021;-52
2022/04/18 12:30:16;;;;;;;2.47;1.70;;;18.70;56.80;;;;;;5060678;28;20032;-52
2022/04/18 12:32:44;;;;;;;1.52;1.40;;;18.60;55.40;;;;;;5094646;28;20074;-52
2022/04/18 12:35:10;;;;;;;2.13;1.20;;;18.70;56.30;;;;;;5094619;28;20068;-55
2022/04/18 12:37:36;;;;;;;1.70;1.40;;;18.90;55.20;;;;;;5094541;28;20474;-53
2022/04/18 12:40:11;;;;;;;2.42;1.30;;;19.10;54.60;;;;;;5094487;28;20020;-53
2022/04/18 12:42:37;;;;;;;2.80;1.10;;;19.20;55.00;;;;;;5075568;28;20031;-57
2022/04/18 12:45:03;;;;;;;2.83;1.30;;;19.30;54.70;;;;;;5075984;28;20024;-57
2022/04/18 12:47:35;;;;;;;3.72;1.60;;;19.50;55.50;;;;;;5075932;28;20035;-51
2022/04/18 12:50:04;;;;;;;2.80;1.50;;;19.50;55.70;;;;;;5094071;28;20462;-53
2022/04/18 12:52:29;;;;;;;2.60;1.27;;;19.40;55.20;;;;;;5085623;28;20031;-52
2022/04/18 12:55:04;;;;;;;4.07;1.33;;;19.40;54.90;;;;;;5056256;28;20024;-50
2022/04/18 12:57:33;;;;;;;2.03;1.52;;;19.50;54.60;;;;;;5073632;28;20424;-52
2022/04/18 13:00:14;;;;;;;2.60;1.58;;;19.50;54.50;;;;;;5055741;28;20386;-53
2022/04/18 13:03:00;;;;;;;3.30;1.70;;;19.60;55.00;;;;;;5054966;28;20048;-52
2022/04/18 13:05:53;;;;;;;3.42;1.60;;;19.60;53.60;;;;;;5069239;28;20031;-52
2022/04/18 13:08:19;;;;;;;4.65;1.95;;;19.70;54.40;;;;;;5069355;28;20039;-54
2022/04/18 13:10:45;;;;;;;3.15;1.30;;;19.70;54.70;;;;;;5072526;28;20077;-53
2022/04/18 13:13:17;;;;;;;3.80;1.80;;;19.70;54.90;;;;;;5075659;28;20024;-51
2022/04/18 13:15:45;;;;;;;2.80;1.30;;;19.60;55.30;;;;;;5076376;28;20028;-50
2022/04/18 13:18:26;;;;;;;2.20;1.60;;;19.60;55.00;;;;;;5093865;28;20059;-50
2022/04/18 13:20:52;;;;;;;3.63;1.53;;;19.60;55.40;;;;;;5075416;28;20020;-54